sensor_id;sensor_type;location;lat;lon;timestamp;P1;durP1;ratioP1;P2;durP2;ratioP2
29416;SDS011;28421;51.030;4.006;2024-02-26T00:01:09;1.02;;;1.02;;
29416;SDS011;28421;51.030;4.006;2024-02-26T00:03:34;0.88;;;0.88;;
29416;SDS011;28421;51.030;4.006;2024-02-26T00:06:01;6.95;;;1.65;;
29416;SDS011;28421;51.030;4.006;2024-02-26T00:08:27;5.53;;;1.27;;
29416;SDS011;28421;51.030;4.006;2024-02-26T00:10:53;0.90;;;0.90;;
29416;SDS011;28421;51.030;4.006;2024-02-26T00:13:18;1.10;;;1.10;;
29416;SDS011;28421;51.030;4.006;2024-02-26T00:15:45;1.45;;;1.35;;
29416;SDS011;28421;51.030;4.006;2024-02-26T00:18:11;2.30;;;1.65;;
29416;SDS011;28421;51.030;4.006;2024-02-26T00:20:36;0.82;;;0.82;;
29416;SDS011;28421;51.030;4.006;2024-02-26T00:23:02;1.10;;;1.10;;
29416;SDS011;28421;51.030;4.006;2024-02-26T00:25:27;1.00;;;1.00;;
29416;SDS011;28421;51.030;4.006;2024-02-26T00:27:53;2.70;;;1.67;;
29416;SDS011;28421;51.030;4.006;2024-02-26T00:30:18;0.85;;;0.85;;
29416;SDS011;28421;51.030;4.006;2024-02-26T00:32:44;1.13;;;1.02;;
29416;SDS011;28421;51.030;4.006;2024-02-26T00:35:09;1.73;;;1.10;;
29416;SDS011;28421;51.030;4.006;2024-02-26T00:37:35;0.90;;;0.90;;
29416;SDS011;28421;51.030;4.006;2024-02-26T00:40:00;1.40;;;1.30;;
29416;SDS011;28421;51.030;4.006;2024-02-26T00:42:26;1.00;;;0.93;;
29416;SDS011;28421;51.030;4.006;2024-02-26T00:44:51;1.33;;;0.95;;
29416;SDS011;28421;51.030;4.006;2024-02-26T00:47:16;1.38;;;1.27;;
29416;SDS011;28421;51.030;4.006;2024-02-26T00:49:42;0.85;;;0.85;;
29416;SDS011;28421;51.030;4.006;2024-02-26T00:52:07;2.63;;;1.27;;
29416;SDS011;28421;51.030;4.006;2024-02-26T00:54:33;1.02;;;1.02;;
29416;SDS011;28421;51.030;4.006;2024-02-26T00:56:58;1.83;;;1.27;;
29416;SDS011;28421;51.030;4.006;2024-02-26T00:59:24;1.75;;;1.15;;
29416;SDS011;28421;51.030;4.006;2024-02-26T01:01:49;1.10;;;1.10;;
29416;SDS011;28421;51.030;4.006;2024-02-26T01:04:14;1.00;;;0.68;;
29416;SDS011;28421;51.030;4.006;2024-02-26T01:06:40;1.73;;;1.45;;
29416;SDS011;28421;51.030;4.006;2024-02-26T01:09:05;0.85;;;0.85;;
29416;SDS011;28421;51.030;4.006;2024-02-26T01:11:31;1.55;;;1.25;;
29416;SDS011;28421;51.030;4.006;2024-02-26T01:13:56;1.08;;;1.05;;
29416;SDS011;28421;51.030;4.006;2024-02-26T01:16:25;1.20;;;1.20;;
29416;SDS011;28421;51.030;4.006;2024-02-26T01:18:50;1.73;;;1.20;;
29416;SDS011;28421;51.030;4.006;2024-02-26T01:21:16;4.93;;;1.15;;
29416;SDS011;28421;51.030;4.006;2024-02-26T01:23:41;1.13;;;1.08;;
29416;SDS011;28421;51.030;4.006;2024-02-26T01:26:07;1.48;;;1.33;;
29416;SDS011;28421;51.030;4.006;2024-02-26T01:28:33;0.82;;;0.82;;
29416;SDS011;28421;51.030;4.006;2024-02-26T01:30:58;2.45;;;1.00;;
29416;SDS011;28421;51.030;4.006;2024-02-26T01:33:25;1.60;;;1.02;;
29416;SDS011;28421;51.030;4.006;2024-02-26T01:35:51;1.52;;;0.82;;
29416;SDS011;28421;51.030;4.006;2024-02-26T01:38:18;1.58;;;1.48;;
29416;SDS011;28421;51.030;4.006;2024-02-26T01:40:43;0.98;;;0.98;;
29416;SDS011;28421;51.030;4.006;2024-02-26T01:43:09;0.98;;;0.95;;
29416;SDS011;28421;51.030;4.006;2024-02-26T01:45:34;4.53;;;1.55;;
29416;SDS011;28421;51.030;4.006;2024-02-26T01:47:59;3.80;;;1.20;;
29416;SDS011;28421;51.030;4.006;2024-02-26T01:50:25;1.58;;;1.35;;
29416;SDS011;28421;51.030;4.006;2024-02-26T01:52:52;1.65;;;1.08;;
29416;SDS011;28421;51.030;4.006;2024-02-26T01:55:20;2.00;;;1.77;;
29416;SDS011;28421;51.030;4.006;2024-02-26T01:57:49;0.70;;;0.70;;
29416;SDS011;28421;51.030;4.006;2024-02-26T02:00:16;1.23;;;1.15;;
29416;SDS011;28421;51.030;4.006;2024-02-26T02:02:43;1.42;;;1.33;;
29416;SDS011;28421;51.030;4.006;2024-02-26T02:05:12;0.90;;;0.90;;
29416;SDS011;28421;51.030;4.006;2024-02-26T02:07:39;0.90;;;0.90;;
29416;SDS011;28421;51.030;4.006;2024-02-26T02:10:06;1.00;;;1.00;;
29416;SDS011;28421;51.030;4.006;2024-02-26T02:12:32;1.20;;;1.20;;
29416;SDS011;28421;51.030;4.006;2024-02-26T02:14:59;1.30;;;1.20;;
29416;SDS011;28421;51.030;4.006;2024-02-26T02:17:26;1.30;;;1.00;;
29416;SDS011;28421;51.030;4.006;2024-02-26T02:19:52;0.85;;;0.85;;
29416;SDS011;28421;51.030;4.006;2024-02-26T02:22:18;3.88;;;0.93;;
29416;SDS011;28421;51.030;4.006;2024-02-26T02:24:44;0.90;;;0.90;;
29416;SDS011;28421;51.030;4.006;2024-02-26T02:27:10;1.70;;;1.20;;
29416;SDS011;28421;51.030;4.006;2024-02-26T02:29:35;3.05;;;1.50;;
29416;SDS011;28421;51.030;4.006;2024-02-26T02:32:02;0.88;;;0.88;;
29416;SDS011;28421;51.030;4.006;2024-02-26T02:34:29;2.55;;;1.25;;
29416;SDS011;28421;51.030;4.006;2024-02-26T02:36:55;1.75;;;1.27;;
29416;SDS011;28421;51.030;4.006;2024-02-26T02:39:20;3.00;;;1.27;;
29416;SDS011;28421;51.030;4.006;2024-02-26T02:41:46;1.83;;;1.48;;
29416;SDS011;28421;51.030;4.006;2024-02-26T02:44:12;1.70;;;1.10;;
29416;SDS011;28421;51.030;4.006;2024-02-26T02:46:37;1.60;;;1.42;;
29416;SDS011;28421;51.030;4.006;2024-02-26T02:49:03;1.42;;;1.33;;
29416;SDS011;28421;51.030;4.006;2024-02-26T02:51:29;1.33;;;1.23;;
29416;SDS011;28421;51.030;4.006;2024-02-26T02:53:54;1.63;;;1.52;;
29416;SDS011;28421;51.030;4.006;2024-02-26T02:56:20;1.42;;;1.33;;
29416;SDS011;28421;51.030;4.006;2024-02-26T02:58:45;2.47;;;2.08;;
29416;SDS011;28421;51.030;4.006;2024-02-26T03:01:12;1.90;;;1.80;;
29416;SDS011;28421;51.030;4.006;2024-02-26T03:03:38;4.13;;;1.60;;
29416;SDS011;28421;51.030;4.006;2024-02-26T03:06:04;1.50;;;1.40;;
29416;SDS011;28421;51.030;4.006;2024-02-26T03:08:29;2.10;;;2.00;;
29416;SDS011;28421;51.030;4.006;2024-02-26T03:10:55;1.60;;;1.48;;
29416;SDS011;28421;51.030;4.006;2024-02-26T03:13:21;2.17;;;1.95;;
29416;SDS011;28421;51.030;4.006;2024-02-26T03:15:46;2.33;;;2.10;;
29416;SDS011;28421;51.030;4.006;2024-02-26T03:18:12;2.30;;;2.10;;
29416;SDS011;28421;51.030;4.006;2024-02-26T03:20:37;1.85;;;1.75;;
29416;SDS011;28421;51.030;4.006;2024-02-26T03:23:03;2.58;;;1.83;;
29416;SDS011;28421;51.030;4.006;2024-02-26T03:25:28;1.67;;;1.58;;
29416;SDS011;28421;51.030;4.006;2024-02-26T03:27:54;1.77;;;1.60;;
29416;SDS011;28421;51.030;4.006;2024-02-26T03:30:19;1.70;;;1.60;;
29416;SDS011;28421;51.030;4.006;2024-02-26T03:32:45;8.18;;;3.28;;
29416;SDS011;28421;51.030;4.006;2024-02-26T03:35:12;2.25;;;2.08;;
29416;SDS011;28421;51.030;4.006;2024-02-26T03:37:37;2.63;;;1.80;;
29416;SDS011;28421;51.030;4.006;2024-02-26T03:40:03;1.70;;;1.60;;
29416;SDS011;28421;51.030;4.006;2024-02-26T03:42:29;1.85;;;1.75;;
29416;SDS011;28421;51.030;4.006;2024-02-26T03:44:54;2.10;;;1.88;;
29416;SDS011;28421;51.030;4.006;2024-02-26T03:47:19;1.92;;;1.83;;
29416;SDS011;28421;51.030;4.006;2024-02-26T03:49:45;2.42;;;2.22;;
29416;SDS011;28421;51.030;4.006;2024-02-26T03:52:10;2.20;;;2.08;;
29416;SDS011;28421;51.030;4.006;2024-02-26T03:54:36;2.47;;;2.13;;
29416;SDS011;28421;51.030;4.006;2024-02-26T03:57:01;1.83;;;1.67;;
29416;SDS011;28421;51.030;4.006;2024-02-26T03:59:27;2.15;;;1.92;;
29416;SDS011;28421;51.030;4.006;2024-02-26T04:01:52;2.47;;;2.22;;
29416;SDS011;28421;51.030;4.006;2024-02-26T04:04:18;4.75;;;3.22;;
29416;SDS011;28421;51.030;4.006;2024-02-26T04:06:46;2.70;;;2.25;;
29416;SDS011;28421;51.030;4.006;2024-02-26T04:09:15;3.53;;;2.55;;
29416;SDS011;28421;51.030;4.006;2024-02-26T04:11:41;3.63;;;2.08;;
29416;SDS011;28421;51.030;4.006;2024-02-26T04:14:08;6.32;;;3.17;;
29416;SDS011;28421;51.030;4.006;2024-02-26T04:16:34;4.55;;;2.97;;
29416;SDS011;28421;51.030;4.006;2024-02-26T04:19:01;4.22;;;3.83;;
29416;SDS011;28421;51.030;4.006;2024-02-26T04:21:26;2.72;;;2.53;;
29416;SDS011;28421;51.030;4.006;2024-02-26T04:23:52;3.85;;;3.55;;
29416;SDS011;28421;51.030;4.006;2024-02-26T04:26:20;5.07;;;3.53;;
29416;SDS011;28421;51.030;4.006;2024-02-26T04:28:46;5.45;;;3.83;;
29416;SDS011;28421;51.030;4.006;2024-02-26T04:31:12;10.90;;;4.28;;
29416;SDS011;28421;51.030;4.006;2024-02-26T04:33:37;5.95;;;4.15;;
29416;SDS011;28421;51.030;4.006;2024-02-26T04:36:02;5.55;;;3.65;;
29416;SDS011;28421;51.030;4.006;2024-02-26T04:38:28;4.28;;;3.40;;
29416;SDS011;28421;51.030;4.006;2024-02-26T04:40:54;5.50;;;4.22;;
29416;SDS011;28421;51.030;4.006;2024-02-26T04:43:19;6.22;;;4.38;;
29416;SDS011;28421;51.030;4.006;2024-02-26T04:45:44;6.90;;;5.13;;
29416;SDS011;28421;51.030;4.006;2024-02-26T04:48:10;4.55;;;3.70;;
29416;SDS011;28421;51.030;4.006;2024-02-26T04:50:35;5.03;;;4.22;;
29416;SDS011;28421;51.030;4.006;2024-02-26T04:53:01;2.95;;;2.70;;
29416;SDS011;28421;51.030;4.006;2024-02-26T04:55:26;5.40;;;4.07;;
29416;SDS011;28421;51.030;4.006;2024-02-26T04:57:52;3.95;;;3.40;;
29416;SDS011;28421;51.030;4.006;2024-02-26T05:00:18;5.03;;;3.83;;
29416;SDS011;28421;51.030;4.006;2024-02-26T05:02:43;6.13;;;4.10;;
29416;SDS011;28421;51.030;4.006;2024-02-26T05:05:08;7.82;;;4.30;;
29416;SDS011;28421;51.030;4.006;2024-02-26T05:07:39;6.68;;;4.57;;
29416;SDS011;28421;51.030;4.006;2024-02-26T05:10:05;3.90;;;3.58;;
29416;SDS011;28421;51.030;4.006;2024-02-26T05:12:30;4.90;;;3.30;;
29416;SDS011;28421;51.030;4.006;2024-02-26T05:14:56;6.38;;;4.07;;
29416;SDS011;28421;51.030;4.006;2024-02-26T05:17:22;4.65;;;4.07;;
29416;SDS011;28421;51.030;4.006;2024-02-26T05:19:47;5.75;;;3.88;;
29416;SDS011;28421;51.030;4.006;2024-02-26T05:22:13;3.83;;;3.15;;
29416;SDS011;28421;51.030;4.006;2024-02-26T05:24:38;5.47;;;4.32;;
29416;SDS011;28421;51.030;4.006;2024-02-26T05:27:04;7.85;;;3.78;;
29416;SDS011;28421;51.030;4.006;2024-02-26T05:29:29;4.00;;;3.17;;
29416;SDS011;28421;51.030;4.006;2024-02-26T05:31:55;4.82;;;3.53;;
29416;SDS011;28421;51.030;4.006;2024-02-26T05:34:20;4.85;;;3.83;;
29416;SDS011;28421;51.030;4.006;2024-02-26T05:36:47;7.40;;;4.60;;
29416;SDS011;28421;51.030;4.006;2024-02-26T05:39:12;3.60;;;3.22;;
29416;SDS011;28421;51.030;4.006;2024-02-26T05:41:37;6.45;;;4.18;;
29416;SDS011;28421;51.030;4.006;2024-02-26T05:44:03;4.30;;;3.38;;
29416;SDS011;28421;51.030;4.006;2024-02-26T05:46:28;5.97;;;4.20;;
29416;SDS011;28421;51.030;4.006;2024-02-26T05:48:54;5.35;;;4.45;;
29416;SDS011;28421;51.030;4.006;2024-02-26T05:51:19;5.10;;;4.03;;
29416;SDS011;28421;51.030;4.006;2024-02-26T05:53:45;4.82;;;3.17;;
29416;SDS011;28421;51.030;4.006;2024-02-26T05:56:19;5.78;;;4.03;;
29416;SDS011;28421;51.030;4.006;2024-02-26T05:58:45;6.47;;;4.18;;
29416;SDS011;28421;51.030;4.006;2024-02-26T06:01:11;4.97;;;3.85;;
29416;SDS011;28421;51.030;4.006;2024-02-26T06:03:36;3.50;;;3.05;;
29416;SDS011;28421;51.030;4.006;2024-02-26T06:06:01;4.65;;;3.60;;
29416;SDS011;28421;51.030;4.006;2024-02-26T06:08:27;5.68;;;4.45;;
29416;SDS011;28421;51.030;4.006;2024-02-26T06:10:52;3.55;;;3.25;;
29416;SDS011;28421;51.030;4.006;2024-02-26T06:13:18;4.97;;;3.92;;
29416;SDS011;28421;51.030;4.006;2024-02-26T06:15:43;3.03;;;2.75;;
29416;SDS011;28421;51.030;4.006;2024-02-26T06:18:09;5.13;;;3.63;;
29416;SDS011;28421;51.030;4.006;2024-02-26T06:20:34;5.03;;;4.10;;
29416;SDS011;28421;51.030;4.006;2024-02-26T06:23:00;4.75;;;3.72;;
29416;SDS011;28421;51.030;4.006;2024-02-26T06:25:25;5.38;;;3.53;;
29416;SDS011;28421;51.030;4.006;2024-02-26T06:27:51;4.25;;;3.63;;
29416;SDS011;28421;51.030;4.006;2024-02-26T06:30:16;5.53;;;3.75;;
29416;SDS011;28421;51.030;4.006;2024-02-26T06:32:42;5.07;;;3.80;;
29416;SDS011;28421;51.030;4.006;2024-02-26T06:35:08;5.15;;;3.50;;
29416;SDS011;28421;51.030;4.006;2024-02-26T06:37:36;3.50;;;3.20;;
29416;SDS011;28421;51.030;4.006;2024-02-26T06:40:02;4.78;;;3.85;;
29416;SDS011;28421;51.030;4.006;2024-02-26T06:42:31;5.72;;;4.35;;
29416;SDS011;28421;51.030;4.006;2024-02-26T06:44:57;4.55;;;3.67;;
29416;SDS011;28421;51.030;4.006;2024-02-26T06:47:23;3.88;;;3.50;;
29416;SDS011;28421;51.030;4.006;2024-02-26T06:49:48;6.43;;;4.38;;
29416;SDS011;28421;51.030;4.006;2024-02-26T06:52:14;3.97;;;3.63;;
29416;SDS011;28421;51.030;4.006;2024-02-26T06:54:39;5.20;;;3.15;;
29416;SDS011;28421;51.030;4.006;2024-02-26T06:57:05;3.95;;;3.60;;
29416;SDS011;28421;51.030;4.006;2024-02-26T06:59:30;5.20;;;3.95;;
29416;SDS011;28421;51.030;4.006;2024-02-26T07:01:56;4.28;;;3.45;;
29416;SDS011;28421;51.030;4.006;2024-02-26T07:04:21;5.47;;;4.38;;
29416;SDS011;28421;51.030;4.006;2024-02-26T07:06:47;5.10;;;4.40;;
29416;SDS011;28421;51.030;4.006;2024-02-26T07:09:13;8.63;;;4.18;;
29416;SDS011;28421;51.030;4.006;2024-02-26T07:11:39;8.93;;;4.78;;
29416;SDS011;28421;51.030;4.006;2024-02-26T07:14:07;3.53;;;3.22;;
29416;SDS011;28421;51.030;4.006;2024-02-26T07:16:36;4.88;;;4.43;;
29416;SDS011;28421;51.030;4.006;2024-02-26T07:19:02;4.18;;;3.30;;
29416;SDS011;28421;51.030;4.006;2024-02-26T07:21:28;3.47;;;3.17;;
29416;SDS011;28421;51.030;4.006;2024-02-26T07:23:53;3.65;;;3.35;;
29416;SDS011;28421;51.030;4.006;2024-02-26T07:26:19;11.13;;;3.78;;
29416;SDS011;28421;51.030;4.006;2024-02-26T07:28:44;4.55;;;3.92;;
29416;SDS011;28421;51.030;4.006;2024-02-26T07:31:10;6.75;;;4.22;;
29416;SDS011;28421;51.030;4.006;2024-02-26T07:33:36;4.70;;;3.50;;
29416;SDS011;28421;51.030;4.006;2024-02-26T07:36:01;4.72;;;3.92;;
29416;SDS011;28421;51.030;4.006;2024-02-26T07:38:27;4.32;;;3.90;;
29416;SDS011;28421;51.030;4.006;2024-02-26T07:40:53;5.50;;;4.38;;
29416;SDS011;28421;51.030;4.006;2024-02-26T07:43:18;6.40;;;4.75;;
29416;SDS011;28421;51.030;4.006;2024-02-26T07:45:43;5.20;;;3.70;;
29416;SDS011;28421;51.030;4.006;2024-02-26T07:48:09;3.25;;;2.97;;
29416;SDS011;28421;51.030;4.006;2024-02-26T07:50:34;6.30;;;3.88;;
29416;SDS011;28421;51.030;4.006;2024-02-26T07:53:00;3.88;;;3.45;;
29416;SDS011;28421;51.030;4.006;2024-02-26T07:55:25;4.55;;;3.88;;
29416;SDS011;28421;51.030;4.006;2024-02-26T07:57:51;4.60;;;3.63;;
29416;SDS011;28421;51.030;4.006;2024-02-26T08:00:17;4.25;;;3.38;;
29416;SDS011;28421;51.030;4.006;2024-02-26T08:02:43;4.93;;;4.07;;
29416;SDS011;28421;51.030;4.006;2024-02-26T08:05:09;3.70;;;3.30;;
29416;SDS011;28421;51.030;4.006;2024-02-26T08:07:34;5.22;;;4.25;;
29416;SDS011;28421;51.030;4.006;2024-02-26T08:10:00;5.90;;;4.28;;
29416;SDS011;28421;51.030;4.006;2024-02-26T08:12:25;5.90;;;3.63;;
29416;SDS011;28421;51.030;4.006;2024-02-26T08:14:51;2.90;;;2.70;;
29416;SDS011;28421;51.030;4.006;2024-02-26T08:17:16;5.72;;;3.88;;
29416;SDS011;28421;51.030;4.006;2024-02-26T08:19:42;3.83;;;3.42;;
29416;SDS011;28421;51.030;4.006;2024-02-26T08:22:07;4.53;;;3.90;;
29416;SDS011;28421;51.030;4.006;2024-02-26T08:24:33;5.82;;;3.60;;
29416;SDS011;28421;51.030;4.006;2024-02-26T08:26:58;7.30;;;3.22;;
29416;SDS011;28421;51.030;4.006;2024-02-26T08:29:23;6.30;;;3.97;;
29416;SDS011;28421;51.030;4.006;2024-02-26T08:31:49;4.15;;;3.00;;
29416;SDS011;28421;51.030;4.006;2024-02-26T08:34:15;4.13;;;3.72;;
29416;SDS011;28421;51.030;4.006;2024-02-26T08:36:40;5.85;;;4.18;;
29416;SDS011;28421;51.030;4.006;2024-02-26T08:39:08;4.93;;;3.58;;
29416;SDS011;28421;51.030;4.006;2024-02-26T08:41:34;4.43;;;3.47;;
29416;SDS011;28421;51.030;4.006;2024-02-26T08:43:59;5.85;;;4.07;;
29416;SDS011;28421;51.030;4.006;2024-02-26T08:46:25;5.20;;;3.88;;
29416;SDS011;28421;51.030;4.006;2024-02-26T08:48:50;3.83;;;3.20;;
29416;SDS011;28421;51.030;4.006;2024-02-26T08:51:15;4.53;;;3.92;;
29416;SDS011;28421;51.030;4.006;2024-02-26T08:53:42;3.95;;;3.55;;
29416;SDS011;28421;51.030;4.006;2024-02-26T08:56:07;6.10;;;4.50;;
29416;SDS011;28421;51.030;4.006;2024-02-26T08:58:32;4.90;;;3.90;;
29416;SDS011;28421;51.030;4.006;2024-02-26T09:00:58;3.10;;;2.80;;
29416;SDS011;28421;51.030;4.006;2024-02-26T09:03:23;11.25;;;4.47;;
29416;SDS011;28421;51.030;4.006;2024-02-26T09:05:49;4.28;;;3.95;;
29416;SDS011;28421;51.030;4.006;2024-02-26T09:08:15;5.60;;;3.55;;
29416;SDS011;28421;51.030;4.006;2024-02-26T09:10:40;5.15;;;3.88;;
29416;SDS011;28421;51.030;4.006;2024-02-26T09:13:07;5.88;;;3.88;;
29416;SDS011;28421;51.030;4.006;2024-02-26T09:15:32;4.43;;;4.03;;
29416;SDS011;28421;51.030;4.006;2024-02-26T09:17:58;8.18;;;4.68;;
29416;SDS011;28421;51.030;4.006;2024-02-26T09:20:23;6.72;;;4.22;;
29416;SDS011;28421;51.030;4.006;2024-02-26T09:22:49;4.55;;;4.05;;
29416;SDS011;28421;51.030;4.006;2024-02-26T09:25:15;5.30;;;4.22;;
29416;SDS011;28421;51.030;4.006;2024-02-26T09:27:42;4.47;;;3.65;;
29416;SDS011;28421;51.030;4.006;2024-02-26T09:30:08;4.70;;;3.78;;
29416;SDS011;28421;51.030;4.006;2024-02-26T09:32:38;4.72;;;4.32;;
29416;SDS011;28421;51.030;4.006;2024-02-26T09:35:05;5.22;;;3.63;;
29416;SDS011;28421;51.030;4.006;2024-02-26T09:37:30;5.85;;;4.13;;
29416;SDS011;28421;51.030;4.006;2024-02-26T09:39:56;3.83;;;2.83;;
29416;SDS011;28421;51.030;4.006;2024-02-26T09:42:21;6.25;;;4.30;;
29416;SDS011;28421;51.030;4.006;2024-02-26T09:44:51;5.03;;;3.38;;
29416;SDS011;28421;51.030;4.006;2024-02-26T09:47:20;7.32;;;3.90;;
29416;SDS011;28421;51.030;4.006;2024-02-26T09:49:48;7.35;;;4.15;;
29416;SDS011;28421;51.030;4.006;2024-02-26T09:52:15;8.00;;;4.10;;
29416;SDS011;28421;51.030;4.006;2024-02-26T09:54:42;5.78;;;4.00;;
29416;SDS011;28421;51.030;4.006;2024-02-26T09:57:11;3.40;;;2.88;;
29416;SDS011;28421;51.030;4.006;2024-02-26T09:59:42;5.82;;;4.07;;
29416;SDS011;28421;51.030;4.006;2024-02-26T10:02:08;4.03;;;3.63;;
29416;SDS011;28421;51.030;4.006;2024-02-26T10:04:37;6.15;;;4.35;;
29416;SDS011;28421;51.030;4.006;2024-02-26T10:07:05;7.07;;;4.50;;
29416;SDS011;28421;51.030;4.006;2024-02-26T10:09:36;4.88;;;4.13;;
29416;SDS011;28421;51.030;4.006;2024-02-26T10:12:03;6.15;;;3.38;;
29416;SDS011;28421;51.030;4.006;2024-02-26T10:14:30;4.15;;;3.75;;
29416;SDS011;28421;51.030;4.006;2024-02-26T10:16:55;4.00;;;3.05;;
29416;SDS011;28421;51.030;4.006;2024-02-26T10:19:25;3.20;;;2.90;;
29416;SDS011;28421;51.030;4.006;2024-02-26T10:21:57;3.75;;;3.30;;
29416;SDS011;28421;51.030;4.006;2024-02-26T10:24:23;6.93;;;4.10;;
29416;SDS011;28421;51.030;4.006;2024-02-26T10:26:50;4.30;;;3.25;;
29416;SDS011;28421;51.030;4.006;2024-02-26T10:29:17;3.95;;;3.55;;
29416;SDS011;28421;51.030;4.006;2024-02-26T10:31:43;4.38;;;3.80;;
29416;SDS011;28421;51.030;4.006;2024-02-26T10:34:08;3.60;;;3.00;;
29416;SDS011;28421;51.030;4.006;2024-02-26T10:36:34;11.70;;;4.25;;
29416;SDS011;28421;51.030;4.006;2024-02-26T10:39:06;5.85;;;3.78;;
29416;SDS011;28421;51.030;4.006;2024-02-26T10:41:33;8.20;;;5.00;;
29416;SDS011;28421;51.030;4.006;2024-02-26T10:43:59;4.20;;;3.80;;
29416;SDS011;28421;51.030;4.006;2024-02-26T10:46:28;5.50;;;4.40;;
29416;SDS011;28421;51.030;4.006;2024-02-26T10:48:53;6.57;;;4.15;;
29416;SDS011;28421;51.030;4.006;2024-02-26T10:51:29;5.47;;;4.32;;
29416;SDS011;28421;51.030;4.006;2024-02-26T10:53:58;5.65;;;4.13;;
29416;SDS011;28421;51.030;4.006;2024-02-26T10:56:27;6.50;;;4.18;;
29416;SDS011;28421;51.030;4.006;2024-02-26T10:58:57;5.40;;;4.07;;
29416;SDS011;28421;51.030;4.006;2024-02-26T11:01:24;4.70;;;4.05;;
29416;SDS011;28421;51.030;4.006;2024-02-26T11:03:52;9.68;;;4.70;;
29416;SDS011;28421;51.030;4.006;2024-02-26T11:06:18;8.07;;;4.72;;
29416;SDS011;28421;51.030;4.006;2024-02-26T11:08:52;6.45;;;4.20;;
29416;SDS011;28421;51.030;4.006;2024-02-26T11:11:19;7.28;;;5.57;;
29416;SDS011;28421;51.030;4.006;2024-02-26T11:13:46;9.50;;;4.88;;
29416;SDS011;28421;51.030;4.006;2024-02-26T11:16:19;5.10;;;4.53;;
29416;SDS011;28421;51.030;4.006;2024-02-26T11:18:46;5.90;;;4.55;;
29416;SDS011;28421;51.030;4.006;2024-02-26T11:21:15;6.40;;;5.25;;
29416;SDS011;28421;51.030;4.006;2024-02-26T11:23:41;7.75;;;4.97;;
29416;SDS011;28421;51.030;4.006;2024-02-26T11:26:07;5.65;;;4.80;;
29416;SDS011;28421;51.030;4.006;2024-02-26T11:28:35;6.75;;;4.95;;
29416;SDS011;28421;51.030;4.006;2024-02-26T11:31:03;7.97;;;5.20;;
29416;SDS011;28421;51.030;4.006;2024-02-26T11:33:29;8.50;;;5.35;;
29416;SDS011;28421;51.030;4.006;2024-02-26T11:35:55;7.85;;;5.95;;
29416;SDS011;28421;51.030;4.006;2024-02-26T11:38:22;7.15;;;4.30;;
29416;SDS011;28421;51.030;4.006;2024-02-26T11:40:51;6.60;;;4.38;;
29416;SDS011;28421;51.030;4.006;2024-02-26T11:43:17;8.10;;;4.63;;
29416;SDS011;28421;51.030;4.006;2024-02-26T11:48:13;5.82;;;4.22;;
29416;SDS011;28421;51.030;4.006;2024-02-26T11:50:46;6.95;;;4.75;;
29416;SDS011;28421;51.030;4.006;2024-02-26T11:58:42;6.00;;;4.00;;
29416;SDS011;28421;51.030;4.006;2024-02-26T12:04:02;5.65;;;3.78;;
29416;SDS011;28421;51.030;4.006;2024-02-26T12:06:29;6.38;;;4.53;;
29416;SDS011;28421;51.030;4.006;2024-02-26T12:08:55;7.03;;;3.58;;
29416;SDS011;28421;51.030;4.006;2024-02-26T12:11:21;8.68;;;4.47;;
29416;SDS011;28421;51.030;4.006;2024-02-26T12:13:47;6.70;;;4.30;;
29416;SDS011;28421;51.030;4.006;2024-02-26T12:16:34;6.53;;;3.63;;
29416;SDS011;28421;51.030;4.006;2024-02-26T12:19:04;6.75;;;4.28;;
29416;SDS011;28421;51.030;4.006;2024-02-26T12:21:33;6.45;;;4.80;;
29416;SDS011;28421;51.030;4.006;2024-02-26T12:24:07;4.35;;;3.33;;
29416;SDS011;28421;51.030;4.006;2024-02-26T12:26:35;5.40;;;4.25;;
29416;SDS011;28421;51.030;4.006;2024-02-26T12:29:00;6.28;;;4.60;;
29416;SDS011;28421;51.030;4.006;2024-02-26T12:31:26;6.72;;;4.55;;
29416;SDS011;28421;51.030;4.006;2024-02-26T12:33:54;7.78;;;5.05;;
29416;SDS011;28421;51.030;4.006;2024-02-26T12:36:20;4.82;;;4.13;;
29416;SDS011;28421;51.030;4.006;2024-02-26T12:38:46;4.45;;;3.90;;
29416;SDS011;28421;51.030;4.006;2024-02-26T12:41:12;7.07;;;4.50;;
29416;SDS011;28421;51.030;4.006;2024-02-26T12:43:38;7.28;;;3.92;;
29416;SDS011;28421;51.030;4.006;2024-02-26T12:46:04;7.43;;;4.38;;
29416;SDS011;28421;51.030;4.006;2024-02-26T12:48:29;5.18;;;3.97;;
29416;SDS011;28421;51.030;4.006;2024-02-26T12:50:54;5.38;;;3.83;;
29416;SDS011;28421;51.030;4.006;2024-02-26T12:53:21;7.55;;;4.38;;
29416;SDS011;28421;51.030;4.006;2024-02-26T12:55:47;4.75;;;3.65;;
29416;SDS011;28421;51.030;4.006;2024-02-26T12:58:13;4.75;;;4.20;;
29416;SDS011;28421;51.030;4.006;2024-02-26T13:00:40;4.72;;;3.80;;
29416;SDS011;28421;51.030;4.006;2024-02-26T13:03:06;4.00;;;3.65;;
29416;SDS011;28421;51.030;4.006;2024-02-26T13:05:32;6.22;;;4.15;;
29416;SDS011;28421;51.030;4.006;2024-02-26T13:07:57;8.20;;;4.30;;
29416;SDS011;28421;51.030;4.006;2024-02-26T13:10:23;4.70;;;3.13;;
29416;SDS011;28421;51.030;4.006;2024-02-26T13:12:50;4.88;;;3.42;;
29416;SDS011;28421;51.030;4.006;2024-02-26T13:15:16;6.45;;;4.03;;
29416;SDS011;28421;51.030;4.006;2024-02-26T13:17:43;5.85;;;3.88;;
29416;SDS011;28421;51.030;4.006;2024-02-26T13:20:09;6.97;;;4.07;;
29416;SDS011;28421;51.030;4.006;2024-02-26T13:22:35;6.22;;;3.65;;
29416;SDS011;28421;51.030;4.006;2024-02-26T13:25:01;8.27;;;4.75;;
29416;SDS011;28421;51.030;4.006;2024-02-26T13:27:32;7.53;;;4.57;;
29416;SDS011;28421;51.030;4.006;2024-02-26T13:32:34;6.43;;;4.57;;
29416;SDS011;28421;51.030;4.006;2024-02-26T13:35:08;4.20;;;3.17;;
29416;SDS011;28421;51.030;4.006;2024-02-26T13:37:35;4.82;;;3.70;;
29416;SDS011;28421;51.030;4.006;2024-02-26T13:40:05;5.35;;;4.13;;
29416;SDS011;28421;51.030;4.006;2024-02-26T13:42:31;3.80;;;3.10;;
29416;SDS011;28421;51.030;4.006;2024-02-26T13:44:56;5.40;;;4.07;;
29416;SDS011;28421;51.030;4.006;2024-02-26T13:47:21;5.53;;;4.25;;
29416;SDS011;28421;51.030;4.006;2024-02-26T13:49:47;4.78;;;3.35;;
29416;SDS011;28421;51.030;4.006;2024-02-26T13:52:13;6.68;;;4.50;;
29416;SDS011;28421;51.030;4.006;2024-02-26T13:54:39;7.35;;;3.28;;
29416;SDS011;28421;51.030;4.006;2024-02-26T13:57:05;8.93;;;4.97;;
29416;SDS011;28421;51.030;4.006;2024-02-26T13:59:31;5.75;;;4.53;;
29416;SDS011;28421;51.030;4.006;2024-02-26T14:01:57;4.05;;;3.15;;
29416;SDS011;28421;51.030;4.006;2024-02-26T14:04:22;5.90;;;3.92;;
29416;SDS011;28421;51.030;4.006;2024-02-26T14:06:48;4.93;;;4.10;;
29416;SDS011;28421;51.030;4.006;2024-02-26T14:09:13;4.95;;;4.38;;
29416;SDS011;28421;51.030;4.006;2024-02-26T14:11:47;9.40;;;4.10;;
29416;SDS011;28421;51.030;4.006;2024-02-26T14:14:13;7.05;;;4.03;;
29416;SDS011;28421;51.030;4.006;2024-02-26T14:16:38;11.18;;;4.07;;
29416;SDS011;28421;51.030;4.006;2024-02-26T14:19:04;4.57;;;2.97;;
29416;SDS011;28421;51.030;4.006;2024-02-26T14:21:29;5.00;;;3.70;;
29416;SDS011;28421;51.030;4.006;2024-02-26T14:23:55;5.45;;;4.22;;
29416;SDS011;28421;51.030;4.006;2024-02-26T14:26:22;13.23;;;9.13;;
29416;SDS011;28421;51.030;4.006;2024-02-26T14:28:47;7.75;;;4.40;;
29416;SDS011;28421;51.030;4.006;2024-02-26T14:31:13;6.88;;;4.30;;
29416;SDS011;28421;51.030;4.006;2024-02-26T14:33:42;17.45;;;9.13;;
29416;SDS011;28421;51.030;4.006;2024-02-26T14:36:07;14.32;;;6.15;;
29416;SDS011;28421;51.030;4.006;2024-02-26T14:38:33;4.35;;;3.67;;
29416;SDS011;28421;51.030;4.006;2024-02-26T14:40:58;4.32;;;3.92;;
29416;SDS011;28421;51.030;4.006;2024-02-26T14:43:24;14.15;;;10.05;;
29416;SDS011;28421;51.030;4.006;2024-02-26T14:45:49;5.20;;;4.63;;
29416;SDS011;28421;51.030;4.006;2024-02-26T14:48:15;4.88;;;3.63;;
29416;SDS011;28421;51.030;4.006;2024-02-26T14:50:40;5.85;;;3.80;;
29416;SDS011;28421;51.030;4.006;2024-02-26T14:53:06;5.95;;;4.05;;
29416;SDS011;28421;51.030;4.006;2024-02-26T14:55:32;7.00;;;3.45;;